createdAt,value
2019-04-19T00:02:04.370Z,4.17
2019-04-19T00:04:29.345Z,4.10
2019-04-19T00:07:10.620Z,4.30
2019-04-19T00:09:43.655Z,3.40
2019-04-19T00:12:21.806Z,3.63
2019-04-19T00:14:40.635Z,4.00
2019-04-19T00:17:13.934Z,3.50
2019-04-19T00:20:04.279Z,4.00
2019-04-19T00:22:31.813Z,3.63
2019-04-19T00:24:47.878Z,3.70
2019-04-19T00:27:20.216Z,3.30
2019-04-19T00:29:58.177Z,3.50
2019-04-19T00:32:36.049Z,4.87
2019-04-19T00:34:54.826Z,3.90
2019-04-19T00:37:25.088Z,3.97
2019-04-19T00:40:22.680Z,3.83
2019-04-19T00:42:57.181Z,3.10
2019-04-19T00:46:00.823Z,3.60
2019-04-19T00:48:29.586Z,3.97
2019-04-19T00:50:59.068Z,3.90
2019-04-19T00:53:28.663Z,3.77
2019-04-19T00:55:59.894Z,3.27
2019-04-19T00:58:26.409Z,3.50
2019-04-19T01:01:04.686Z,3.50
2019-04-19T01:03:32.860Z,4.10
2019-04-19T01:06:04.788Z,3.60
2019-04-19T01:08:30.713Z,4.17
2019-04-19T01:11:17.178Z,3.70
2019-04-19T01:13:51.439Z,3.83
2019-04-19T01:16:15.870Z,4.10
2019-04-19T01:18:48.404Z,3.37
2019-04-19T01:21:09.492Z,4.10
2019-04-19T01:23:46.576Z,3.90
2019-04-19T01:26:14.870Z,3.93
2019-04-19T01:28:52.925Z,3.93
2019-04-19T01:31:21.401Z,3.87
2019-04-19T01:33:49.152Z,3.77
2019-04-19T01:36:28.862Z,3.10
2019-04-19T01:39:11.785Z,3.80
2019-04-19T01:41:37.118Z,3.27
2019-04-19T01:44:25.141Z,3.77
2019-04-19T01:47:07.849Z,3.70
2019-04-19T01:50:07.541Z,4.00
2019-04-19T01:55:09.748Z,4.23
2019-04-19T01:57:30.434Z,4.60
2019-04-19T02:00:02.641Z,3.13
2019-04-19T02:02:36.746Z,3.60
2019-04-19T02:05:12.362Z,4.00
2019-04-19T02:07:40.419Z,3.70
2019-04-19T02:10:57.431Z,3.80
2019-04-19T02:13:51.102Z,4.30
2019-04-19T02:16:17.024Z,3.50
2019-04-19T02:18:45.297Z,3.73
2019-04-19T02:21:22.711Z,3.23
2019-04-19T02:23:52.651Z,3.40
2019-04-19T02:26:21.535Z,3.90
2019-04-19T02:28:51.395Z,4.00
2019-04-19T02:31:43.569Z,4.00
2019-04-19T02:34:32.074Z,3.80
2019-04-19T02:37:02.437Z,4.53
2019-04-19T02:39:28.814Z,3.50
2019-04-19T02:42:00.174Z,4.00
2019-04-19T02:44:23.883Z,3.43
2019-04-19T02:47:09.201Z,3.87
2019-04-19T02:49:54.495Z,3.70
2019-04-19T02:57:39.551Z,4.90
2019-04-19T03:00:47.195Z,3.80
2019-04-19T03:03:15.176Z,3.87
2019-04-19T03:05:41.877Z,4.40
2019-04-19T03:07:53.755Z,4.50
2019-04-19T03:10:26.521Z,3.43
2019-04-19T03:13:13.886Z,4.00
2019-04-19T03:18:27.731Z,3.93
2019-04-19T03:20:47.512Z,3.87
2019-04-19T03:23:23.238Z,3.90
2019-04-19T03:25:48.239Z,4.20
2019-04-19T03:28:22.183Z,4.27
2019-04-19T03:31:13.977Z,5.30
2019-04-19T03:33:44.085Z,4.03
2019-04-19T03:36:05.877Z,4.40
2019-04-19T03:38:40.427Z,3.50
2019-04-19T03:41:18.525Z,3.40
2019-04-19T03:43:48.946Z,3.00
2019-04-19T03:46:48.610Z,3.67
2019-04-19T03:49:08.994Z,3.80
2019-04-19T03:51:26.249Z,3.23
2019-04-19T03:54:11.644Z,3.30
2019-04-19T03:56:34.456Z,3.27
2019-04-19T03:58:43.807Z,3.53
2019-04-19T04:01:14.987Z,3.53
2019-04-19T04:03:49.068Z,4.07
2019-04-19T04:06:23.005Z,3.70
2019-04-19T04:08:59.002Z,3.77
2019-04-19T04:11:53.060Z,3.73
2019-04-19T04:14:45.643Z,4.10
2019-04-19T04:17:07.922Z,4.20
2019-04-19T04:19:38.252Z,3.97
2019-04-19T04:22:16.714Z,3.30
2019-04-19T04:24:53.419Z,4.30
2019-04-19T04:27:30.246Z,4.00
2019-04-19T04:30:00.251Z,3.90
2019-04-19T04:32:34.659Z,3.90
2019-04-19T04:35:10.475Z,4.40
2019-04-19T04:37:42.110Z,4.43
2019-04-19T04:39:57.737Z,4.47
2019-04-19T04:42:33.962Z,4.50
2019-04-19T04:45:23.229Z,4.27
2019-04-19T04:47:53.624Z,4.07
2019-04-19T04:50:54.965Z,4.00
2019-04-19T04:53:06.680Z,3.33
2019-04-19T04:55:45.091Z,3.17
2019-04-19T04:58:19.767Z,3.83
2019-04-19T05:00:50.937Z,3.40
2019-04-19T05:03:35.578Z,3.20
2019-04-19T05:06:07.825Z,3.27
2019-04-19T05:08:40.119Z,3.50
2019-04-19T05:11:13.682Z,2.77
2019-04-19T05:13:43.838Z,2.70
2019-04-19T05:16:22.214Z,3.60
2019-04-19T05:18:45.608Z,13.47
2019-04-19T05:21:21.871Z,4.07
2019-04-19T05:24:01.656Z,3.73
2019-04-19T05:26:37.476Z,3.80
2019-04-19T05:28:56.546Z,3.37
2019-04-19T05:31:16.568Z,3.30
2019-04-19T05:33:51.666Z,3.00
2019-04-19T05:36:34.810Z,3.00
2019-04-19T05:39:12.621Z,3.33
2019-04-19T05:42:03.832Z,2.50
2019-04-19T05:45:04.817Z,3.10
2019-04-19T05:47:23.942Z,3.70
2019-04-19T05:49:56.428Z,4.12
2019-04-19T05:52:28.747Z,3.13
2019-04-19T05:54:42.964Z,3.40
2019-04-19T05:57:31.911Z,4.27
2019-04-19T05:59:54.788Z,3.60
2019-04-19T06:02:27.441Z,3.80
2019-04-19T06:05:15.584Z,4.30
2019-04-19T06:07:39.040Z,4.23
2019-04-19T06:09:54.142Z,3.70
2019-04-19T06:12:28.598Z,3.90
2019-04-19T06:15:19.127Z,3.43
2019-04-19T06:17:56.703Z,3.93
2019-04-19T06:20:30.493Z,3.53
2019-04-19T06:23:02.758Z,3.30
2019-04-19T06:25:47.679Z,3.63
2019-04-19T06:30:48.262Z,3.47
2019-04-19T06:33:18.309Z,3.70
2019-04-19T06:35:38.700Z,3.67
2019-04-19T06:38:01.295Z,3.90
2019-04-19T06:40:34.412Z,3.60
2019-04-19T06:43:11.329Z,4.77
2019-04-19T06:45:55.529Z,4.10
2019-04-19T06:48:14.311Z,3.70
2019-04-19T06:50:43.770Z,3.77
2019-04-19T06:53:12.392Z,4.47
2019-04-19T06:55:48.019Z,3.40
2019-04-19T06:58:21.808Z,4.30
2019-04-19T07:01:00.693Z,3.87
2019-04-19T07:03:19.609Z,3.20
2019-04-19T07:06:09.055Z,3.30
2019-04-19T07:11:16.533Z,3.47
2019-04-19T07:13:39.387Z,3.70
2019-04-19T07:16:28.932Z,3.77
2019-04-19T07:18:42.658Z,3.70
2019-04-19T07:21:21.558Z,3.23
2019-04-19T07:23:59.189Z,3.00
2019-04-19T07:26:26.974Z,3.30
2019-04-19T07:28:41.420Z,3.87
2019-04-19T07:31:13.473Z,3.23
2019-04-19T07:33:53.761Z,3.47
2019-04-19T07:36:39.083Z,2.73
2019-04-19T07:39:09.276Z,2.93
2019-04-19T07:41:38.362Z,2.60
2019-04-19T07:44:21.320Z,3.00
2019-04-19T07:47:20.150Z,2.90
2019-04-19T07:49:46.510Z,2.70
2019-04-19T07:52:16.348Z,2.67
2019-04-19T07:54:42.356Z,2.40
2019-04-19T07:57:56.115Z,2.25
2019-04-19T08:00:16.742Z,2.42
2019-04-19T08:05:26.737Z,2.05
2019-04-19T08:08:01.153Z,2.40
2019-04-19T08:10:18.500Z,1.77
2019-04-19T08:12:52.059Z,2.55
2019-04-19T08:18:13.366Z,2.42
2019-04-19T08:27:50.671Z,2.30
2019-04-19T08:30:17.814Z,2.10
2019-04-19T08:32:45.030Z,2.10
2019-04-19T08:35:17.709Z,2.35
2019-04-19T08:37:48.973Z,2.60
2019-04-19T08:40:38.208Z,2.60
2019-04-19T08:43:13.258Z,2.40
2019-04-19T08:46:01.267Z,2.10
2019-04-19T08:48:59.404Z,1.90
2019-04-19T08:51:59.992Z,1.77
2019-04-19T08:54:56.198Z,1.87
2019-04-19T08:57:08.167Z,2.15
2019-04-19T08:59:53.858Z,1.60
2019-04-19T09:02:24.935Z,1.85
2019-04-19T09:04:54.798Z,1.50
2019-04-19T09:10:17.778Z,1.50
2019-04-19T09:12:31.288Z,1.60
2019-04-19T09:15:11.708Z,1.60
2019-04-19T09:17:59.339Z,1.65
2019-04-19T09:20:15.655Z,1.40
2019-04-19T09:22:56.587Z,1.45
2019-04-19T09:25:31.795Z,1.10
2019-04-19T09:28:15.092Z,1.75
2019-04-19T09:30:43.782Z,1.85
2019-04-19T09:33:01.136Z,1.40
2019-04-19T09:35:39.904Z,1.17
2019-04-19T09:38:15.070Z,1.42
2019-04-19T09:40:44.543Z,1.25
2019-04-19T09:43:24.111Z,1.60
2019-04-19T09:45:40.460Z,1.50
2019-04-19T09:48:31.650Z,1.20
2019-04-19T09:51:00.021Z,1.27
2019-04-19T09:53:51.897Z,1.12
2019-04-19T09:56:07.024Z,1.40
2019-04-19T09:58:40.476Z,1.40
2019-04-19T10:01:06.545Z,1.37
2019-04-19T10:03:44.329Z,1.25
2019-04-19T10:06:10.909Z,1.17
2019-04-19T10:08:42.140Z,1.10
2019-04-19T10:11:12.811Z,1.27
2019-04-19T10:13:43.987Z,1.37
2019-04-19T10:16:34.684Z,1.35
2019-04-19T10:19:07.782Z,1.23
2019-04-19T10:21:52.565Z,1.17
2019-04-19T10:24:24.274Z,1.40
2019-04-19T10:27:17.138Z,1.62
2019-04-19T10:29:49.106Z,1.55
2019-04-19T10:32:38.814Z,1.30
2019-04-19T10:35:09.595Z,1.35
2019-04-19T10:37:40.132Z,1.60
2019-04-19T10:40:13.885Z,1.82
2019-04-19T10:42:45.184Z,1.95
2019-04-19T10:45:16.313Z,2.33
2019-04-19T10:47:47.611Z,2.27
2019-04-19T10:50:30.299Z,3.17
2019-04-19T10:52:52.592Z,3.50
2019-04-19T10:55:26.515Z,3.80
2019-04-19T10:57:58.892Z,3.57
2019-04-19T11:00:29.659Z,4.40
2019-04-19T11:03:01.127Z,4.10
2019-04-19T11:05:34.541Z,4.77
2019-04-19T11:08:05.660Z,5.42
2019-04-19T11:10:36.392Z,5.20
2019-04-19T11:13:06.894Z,6.10
2019-04-19T11:15:38.244Z,5.10
2019-04-19T11:18:09.755Z,5.50
2019-04-19T11:20:47.302Z,5.77
2019-04-19T11:23:13.657Z,5.87
2019-04-19T11:25:46.123Z,4.83
2019-04-19T11:28:16.457Z,5.70
2019-04-19T11:30:52.997Z,5.37
2019-04-19T11:33:25.762Z,6.20
2019-04-19T11:35:57.522Z,5.97
2019-04-19T11:38:29.097Z,5.63
2019-04-19T11:41:00.921Z,6.40
2019-04-19T11:43:31.825Z,5.83
2019-04-19T11:46:04.054Z,5.33
2019-04-19T11:48:35.909Z,6.03
2019-04-19T11:51:07.781Z,5.60
2019-04-19T11:53:42.900Z,5.20
2019-04-19T11:56:54.234Z,7.72
2019-04-19T11:59:37.056Z,5.10
2019-04-19T12:02:01.868Z,5.50
2019-04-19T12:04:32.489Z,5.30
2019-04-19T12:07:02.880Z,5.83
2019-04-19T12:09:34.359Z,5.50
2019-04-19T12:12:05.426Z,5.10
2019-04-19T12:14:36.192Z,4.70
2019-04-19T12:17:07.101Z,5.30
2019-04-19T12:19:46.387Z,5.50
2019-04-19T12:22:10.880Z,6.00
2019-04-19T12:24:42.569Z,4.43
2019-04-19T12:27:13.815Z,3.87
2019-04-19T12:29:48.209Z,4.90
2019-04-19T12:32:17.191Z,5.90
2019-04-19T12:34:48.651Z,5.53
2019-04-19T12:37:19.469Z,4.60
2019-04-19T12:39:50.837Z,6.20
2019-04-19T12:42:46.717Z,6.80
2019-04-19T12:45:19.796Z,5.10
2019-04-19T12:47:51.168Z,5.50
2019-04-19T12:50:23.976Z,4.93
2019-04-19T12:52:54.260Z,5.10
2019-04-19T12:55:24.412Z,4.80
2019-04-19T12:58:01.891Z,4.73
2019-04-19T13:00:50.645Z,5.57
2019-04-19T13:03:39.618Z,8.47
2019-04-19T13:06:11.504Z,4.60
2019-04-19T13:08:43.174Z,4.53
2019-04-19T13:11:15.254Z,4.20
2019-04-19T13:13:45.890Z,3.90
2019-04-19T13:16:16.679Z,3.57
2019-04-19T13:18:48.408Z,2.40
2019-04-19T13:21:19.876Z,2.55
2019-04-19T13:23:50.627Z,2.45
2019-04-19T13:26:21.149Z,2.80
2019-04-19T13:28:53.382Z,2.10
2019-04-19T13:31:24.832Z,2.08
2019-04-19T13:33:55.573Z,2.05
2019-04-19T13:36:45.078Z,2.08
2019-04-19T13:39:34.307Z,1.80
2019-04-19T13:42:10.978Z,2.62
2019-04-19T13:44:41.221Z,2.40
2019-04-19T13:47:12.827Z,1.90
2019-04-19T13:49:44.417Z,2.22
2019-04-19T13:52:14.903Z,2.00
2019-04-19T13:54:45.332Z,2.50
2019-04-19T13:57:15.669Z,2.22
2019-04-19T13:59:54.085Z,1.80
2019-04-19T14:02:20.467Z,1.60
2019-04-19T14:04:50.298Z,2.35
2019-04-19T14:07:23.122Z,2.40
2019-04-19T14:09:54.823Z,2.13
2019-04-19T14:12:25.396Z,1.93
2019-04-19T14:14:56.987Z,2.70
2019-04-19T14:17:27.518Z,2.10
2019-04-19T14:19:58.628Z,2.97
2019-04-19T14:22:29.631Z,3.00
2019-04-19T14:25:01.015Z,2.73
2019-04-19T14:27:31.367Z,2.67
2019-04-19T14:30:01.771Z,3.60
2019-04-19T14:32:33.150Z,2.97
2019-04-19T14:35:03.736Z,2.90
2019-04-19T14:37:34.160Z,3.10
2019-04-19T14:40:04.982Z,3.17
2019-04-19T14:42:36.323Z,2.97
2019-04-19T14:45:08.014Z,2.75
2019-04-19T14:47:39.106Z,2.30
2019-04-19T14:50:10.668Z,2.90
2019-04-19T14:52:42.178Z,2.87
2019-04-19T14:55:13.742Z,3.13
2019-04-19T14:57:44.393Z,2.90
2019-04-19T15:00:18.869Z,3.50
2019-04-19T15:02:56.784Z,2.97
2019-04-19T15:05:30.085Z,2.90
2019-04-19T15:08:01.156Z,2.33
2019-04-19T15:10:33.515Z,3.00
2019-04-19T15:13:04.931Z,2.70
2019-04-19T15:15:35.746Z,2.77
2019-04-19T15:18:06.634Z,2.70
2019-04-19T15:20:38.089Z,3.70
2019-04-19T15:23:08.609Z,2.70
2019-04-19T15:25:40.136Z,2.50
2019-04-19T15:28:11.085Z,2.73
2019-04-19T15:30:43.504Z,2.30
2019-04-19T15:33:14.307Z,2.97
2019-04-19T15:35:45.749Z,3.07
2019-04-19T15:38:16.150Z,2.87
2019-04-19T15:40:46.302Z,3.07
2019-04-19T15:43:17.091Z,3.17
2019-04-19T15:45:47.678Z,2.63
2019-04-19T15:48:28.743Z,2.97
2019-04-19T15:50:50.180Z,2.87
2019-04-19T15:53:22.135Z,2.80
2019-04-19T15:55:53.876Z,3.10
2019-04-19T15:58:24.619Z,2.27
2019-04-19T16:00:59.484Z,2.77
2019-04-19T16:03:52.171Z,2.97
2019-04-19T16:06:50.589Z,2.80
2019-04-19T16:09:46.548Z,3.00
2019-04-19T16:12:27.143Z,3.33
2019-04-19T16:14:57.853Z,3.00
2019-04-19T16:17:29.417Z,4.27
2019-04-19T16:19:59.740Z,2.87
2019-04-19T16:22:32.105Z,2.77
2019-04-19T16:25:03.154Z,2.97
2019-04-19T16:27:33.715Z,2.80
2019-04-19T16:30:05.929Z,2.93
2019-04-19T16:32:37.027Z,2.37
2019-04-19T16:35:07.864Z,2.37
2019-04-19T16:37:39.255Z,2.47
2019-04-19T16:40:16.306Z,3.50
2019-04-19T16:42:47.481Z,3.03
2019-04-19T16:45:19.833Z,2.47
2019-04-19T16:47:51.384Z,2.37
2019-04-19T16:50:22.755Z,2.40
2019-04-19T16:52:54.571Z,2.60
2019-04-19T16:55:25.442Z,2.27
2019-04-19T16:57:56.611Z,2.60
2019-04-19T17:00:45.096Z,2.80
2019-04-19T17:03:17.335Z,3.13
2019-04-19T17:05:48.782Z,3.00
2019-04-19T17:08:19.644Z,2.60
2019-04-19T17:10:50.176Z,2.93
2019-04-19T17:13:20.649Z,3.03
2019-04-19T17:16:15.776Z,2.20
2019-04-19T17:19:08.797Z,2.17
2019-04-19T17:21:50.511Z,2.57
2019-04-19T17:24:14.165Z,2.40
2019-04-19T17:26:44.814Z,2.70
2019-04-19T17:29:15.184Z,2.70
2019-04-19T17:31:45.474Z,2.33
2019-04-19T17:34:16.127Z,2.43
2019-04-19T17:36:46.783Z,2.60
2019-04-19T17:39:17.105Z,2.23
2019-04-19T17:41:48.404Z,2.97
2019-04-19T17:44:19.782Z,2.40
2019-04-19T17:46:50.836Z,2.10
2019-04-19T17:49:22.437Z,2.60
2019-04-19T17:52:03.286Z,3.10
2019-04-19T17:54:44.559Z,2.10
2019-04-19T17:56:57.402Z,3.20
2019-04-19T17:59:27.971Z,4.60
2019-04-19T18:01:59.103Z,3.67
2019-04-19T18:04:30.330Z,3.53
2019-04-19T18:07:03.048Z,3.30
2019-04-19T18:09:33.159Z,2.83
2019-04-19T18:12:03.539Z,2.20
2019-04-19T18:14:34.270Z,2.50
2019-04-19T18:17:04.624Z,2.50
2019-04-19T18:19:38.153Z,1.90
2019-04-19T18:22:16.402Z,2.10
2019-04-19T18:24:46.928Z,2.60
2019-04-19T18:27:18.058Z,2.60
2019-04-19T18:29:44.260Z,2.10
2019-04-19T18:32:25.916Z,2.10
2019-04-19T18:34:56.325Z,2.90
2019-04-19T18:37:31.067Z,2.50
2019-04-19T18:39:58.798Z,2.60
2019-04-19T18:42:29.019Z,3.00
2019-04-19T18:45:02.864Z,3.10
2019-04-19T18:47:32.687Z,3.13
2019-04-19T18:50:04.472Z,3.57
2019-04-19T18:52:45.693Z,2.67
2019-04-19T18:55:10.601Z,2.97
2019-04-19T18:57:44.407Z,3.57
2019-04-19T19:00:12.790Z,3.20
2019-04-19T19:02:45.849Z,2.60
2019-04-19T19:05:16.624Z,2.80
2019-04-19T19:07:49.356Z,3.10
2019-04-19T19:10:25.884Z,2.90
2019-04-19T19:12:51.940Z,4.00
2019-04-19T19:15:25.084Z,2.77
2019-04-19T19:17:59.050Z,3.60
2019-04-19T19:20:36.699Z,4.00
2019-04-19T19:23:19.236Z,2.90
2019-04-19T19:25:48.160Z,3.33
2019-04-19T19:28:16.707Z,3.70
2019-04-19T19:30:47.058Z,3.17
2019-04-19T19:38:27.888Z,3.63
2019-04-19T19:41:08.099Z,3.50
2019-04-19T19:41:43.634Z,3.25
2019-04-19T19:41:43.809Z,2.83
2019-04-19T19:43:42.258Z,3.23
2019-04-19T19:46:23.058Z,3.67
2019-04-19T19:49:07.815Z,3.70
2019-04-19T19:51:23.873Z,3.50
2019-04-19T19:54:02.468Z,4.17
2019-04-19T19:56:35.397Z,3.33
2019-04-19T19:58:49.429Z,3.23
2019-04-19T20:01:26.711Z,3.60
2019-04-19T20:03:50.543Z,3.40
2019-04-19T20:06:24.557Z,4.00
2019-04-19T20:08:55.861Z,4.00
2019-04-19T20:11:30.022Z,4.37
2019-04-19T20:14:01.144Z,3.10
2019-04-19T20:16:33.328Z,3.40
2019-04-19T20:19:05.018Z,4.37
2019-04-19T20:21:36.816Z,4.60
2019-04-19T20:24:16.790Z,3.45
2019-04-19T20:26:54.985Z,3.53
2019-04-19T20:29:21.295Z,4.00
2019-04-19T20:39:48.290Z,3.87
2019-04-19T20:42:27.022Z,4.00
2019-04-19T20:45:00.840Z,4.10
2019-04-19T20:47:29.063Z,3.93
2019-04-19T20:49:58.336Z,4.40
2019-04-19T20:52:44.206Z,4.30
2019-04-19T20:55:25.202Z,3.93
2019-04-19T20:58:01.036Z,4.00
2019-04-19T21:00:33.440Z,4.00
2019-04-19T21:03:01.937Z,4.30
2019-04-19T21:05:35.685Z,4.07
2019-04-19T21:08:10.669Z,3.80
2019-04-19T21:10:42.590Z,3.77
2019-04-19T21:13:14.353Z,3.97
2019-04-19T21:15:45.210Z,3.70
2019-04-19T21:18:21.863Z,3.40
2019-04-19T21:20:50.135Z,3.83
2019-04-19T21:23:24.460Z,4.00
2019-04-19T21:25:57.186Z,3.90
2019-04-19T21:28:33.492Z,4.30
2019-04-19T21:31:00.851Z,3.67
2019-04-19T21:33:29.137Z,4.30
2019-04-19T21:36:04.619Z,3.90
2019-04-19T21:38:31.875Z,4.28
2019-04-19T21:41:13.337Z,3.67
2019-04-19T21:43:40.714Z,4.00
2019-04-19T21:46:12.579Z,3.50
2019-04-19T21:48:44.482Z,3.20
2019-04-19T21:51:24.509Z,4.33
2019-04-19T21:53:50.061Z,3.50
2019-04-19T21:56:21.682Z,3.67
2019-04-19T21:58:54.961Z,3.70
2019-04-19T22:01:25.850Z,4.30
2019-04-19T22:04:03.593Z,3.40
2019-04-19T22:06:31.387Z,4.40
2019-04-19T22:19:07.770Z,3.63
2019-04-19T22:21:44.051Z,3.83
2019-04-19T22:24:10.906Z,3.77
2019-04-19T22:26:47.401Z,4.03
2019-04-19T22:29:13.546Z,4.70
2019-04-19T22:31:43.733Z,4.30
2019-04-19T22:34:14.751Z,4.17
2019-04-19T22:36:48.554Z,4.10
2019-04-19T22:39:19.282Z,4.13
2019-04-19T22:41:50.714Z,4.00
2019-04-19T22:44:22.961Z,4.87
2019-04-19T22:46:56.522Z,4.43
2019-04-19T22:49:28.173Z,4.73
2019-04-19T22:51:58.790Z,4.10
2019-04-19T22:54:29.126Z,4.57
2019-04-19T22:57:09.378Z,4.13
2019-04-19T22:59:31.781Z,3.92
2019-04-19T23:02:17.189Z,3.73
2019-04-19T23:04:49.124Z,3.70
2019-04-19T23:07:20.737Z,4.50
2019-04-19T23:09:51.096Z,4.23
2019-04-19T23:12:22.609Z,4.50
2019-04-19T23:14:53.276Z,4.20
2019-04-19T23:17:29.328Z,4.50
2019-04-19T23:19:55.856Z,4.22
2019-04-19T23:22:31.936Z,3.73
2019-04-19T23:25:04.049Z,4.73
2019-04-19T23:27:40.779Z,4.63
2019-04-19T23:30:19.716Z,4.10
2019-04-19T23:32:48.414Z,4.60
2019-04-19T23:35:23.085Z,4.50
2019-04-19T23:37:51.494Z,4.30
2019-04-19T23:40:28.211Z,4.60
2019-04-19T23:42:55.518Z,4.63
2019-04-19T23:45:32.939Z,5.33
2019-04-19T23:48:00.279Z,4.72
2019-04-19T23:50:34.075Z,3.83
2019-04-19T23:53:05.575Z,5.40
2019-04-19T23:55:36.191Z,4.50
2019-04-19T23:58:06.570Z,4.63
